createdAt,value
2023-05-09T00:00:00.157Z,14.84
2023-05-09T00:03:06.376Z,14.60
2023-05-09T00:06:14.006Z,14.93
2023-05-09T00:09:20.185Z,14.93
2023-05-09T00:12:27.275Z,15.02
2023-05-09T00:15:36.299Z,15.01
2023-05-09T00:18:43.004Z,15.22
2023-05-09T00:21:49.482Z,15.35
2023-05-09T00:24:56.708Z,14.84
2023-05-09T00:28:02.808Z,15.07
2023-05-09T00:31:12.338Z,14.98
2023-05-09T00:34:18.416Z,15.28
2023-05-09T00:37:25.443Z,15.76
2023-05-09T00:40:36.603Z,14.98
2023-05-09T00:43:43.470Z,15.26
2023-05-09T00:46:52.441Z,15.39
2023-05-09T00:50:01.278Z,15.77
2023-05-09T00:53:13.146Z,15.73
2023-05-09T00:56:22.070Z,17.10
2023-05-09T00:59:34.557Z,17.71
2023-05-09T01:02:45.433Z,18.42
2023-05-09T01:06:01.858Z,18.16
2023-05-09T01:09:27.601Z,17.59
2023-05-09T01:12:49.555Z,16.98
2023-05-09T01:16:17.594Z,17.55
2023-05-09T01:20:00.182Z,16.63
2023-05-09T01:23:38.278Z,16.90
2023-05-09T01:27:19.020Z,17.21
2023-05-09T01:30:34.316Z,17.28
2023-05-09T01:33:45.478Z,16.95
2023-05-09T01:36:59.094Z,16.69
2023-05-09T01:40:15.500Z,17.26
2023-05-09T01:43:27.095Z,17.25
2023-05-09T01:46:37.968Z,17.45
2023-05-09T01:49:47.781Z,16.84
2023-05-09T01:53:01.379Z,16.79
2023-05-09T01:56:17.325Z,16.75
2023-05-09T01:59:33.274Z,16.54
2023-05-09T02:02:44.693Z,16.59
2023-05-09T02:05:53.796Z,17.34
2023-05-09T02:09:01.954Z,17.26
2023-05-09T02:12:08.732Z,17.25
2023-05-09T02:15:16.735Z,18.01
2023-05-09T02:18:25.351Z,17.94
2023-05-09T02:21:32.258Z,18.42
2023-05-09T02:24:39.145Z,19.08
2023-05-09T02:27:49.623Z,18.43
2023-05-09T02:31:05.024Z,18.13
2023-05-09T02:34:16.470Z,18.48
2023-05-09T02:37:24.032Z,19.00
2023-05-09T02:40:33.516Z,19.46
2023-05-09T02:43:39.459Z,19.50
2023-05-09T02:46:46.648Z,19.68
2023-05-09T02:50:01.377Z,19.27
2023-05-09T02:53:15.963Z,19.59
2023-05-09T02:56:28.662Z,19.78
2023-05-09T02:59:35.539Z,20.61
2023-05-09T03:02:42.937Z,21.18
2023-05-09T03:05:58.148Z,21.50
2023-05-09T03:09:04.160Z,21.99
2023-05-09T03:12:12.122Z,21.83
2023-05-09T03:15:24.046Z,21.62
2023-05-09T03:18:31.331Z,21.88
2023-05-09T03:21:40.030Z,21.84
2023-05-09T03:25:03.986Z,22.35
2023-05-09T03:28:09.992Z,23.58
2023-05-09T03:31:19.520Z,25.52
2023-05-09T03:34:25.439Z,24.61
2023-05-09T03:37:35.037Z,24.43
2023-05-09T03:40:41.745Z,24.51
2023-05-09T03:43:50.774Z,24.60
2023-05-09T03:46:56.632Z,25.81
2023-05-09T03:50:06.064Z,24.69
2023-05-09T03:53:15.826Z,25.50
2023-05-09T03:56:26.173Z,25.05
2023-05-09T03:59:33.120Z,24.49
2023-05-09T04:02:41.104Z,23.84
2023-05-09T04:05:50.779Z,22.57
2023-05-09T04:09:11.982Z,21.47
2023-05-09T04:12:20.630Z,22.29
2023-05-09T04:15:28.308Z,21.58
2023-05-09T04:18:36.868Z,20.91
2023-05-09T04:21:44.972Z,19.63
2023-05-09T04:24:53.548Z,18.48
2023-05-09T04:28:00.933Z,18.75
2023-05-09T04:31:07.731Z,18.02
2023-05-09T04:34:15.930Z,17.93
2023-05-09T04:37:22.319Z,18.11
2023-05-09T04:40:38.770Z,18.31
2023-05-09T04:43:44.939Z,17.23
2023-05-09T04:47:01.559Z,16.59
2023-05-09T04:50:25.489Z,16.33
2023-05-09T04:53:32.306Z,16.23
2023-05-09T04:56:42.473Z,16.11
2023-05-09T04:59:50.037Z,16.32
2023-05-09T05:02:56.224Z,15.51
2023-05-09T05:06:06.625Z,15.54
2023-05-09T05:09:14.190Z,16.09
2023-05-09T05:12:23.724Z,15.58
2023-05-09T05:15:29.865Z,15.16
2023-05-09T05:18:37.461Z,15.62
2023-05-09T05:21:44.819Z,15.49
2023-05-09T05:24:52.351Z,15.59
2023-05-09T05:28:01.620Z,16.04
2023-05-09T05:31:08.848Z,15.94
2023-05-09T05:34:16.670Z,16.10
2023-05-09T05:37:24.455Z,15.59
2023-05-09T05:40:30.437Z,15.37
2023-05-09T05:43:43.237Z,15.74
2023-05-09T05:46:49.440Z,15.47
2023-05-09T05:49:57.167Z,15.04
2023-05-09T05:53:03.696Z,14.91
2023-05-09T05:56:11.173Z,14.45
2023-05-09T05:59:20.003Z,14.71
2023-05-09T06:02:27.155Z,14.60
2023-05-09T06:05:33.961Z,13.88
2023-05-09T06:08:41.357Z,15.58
2023-05-09T06:11:47.943Z,29.09
2023-05-09T06:14:57.322Z,35.35
2023-05-09T06:18:03.712Z,250.66
2023-05-09T06:21:11.026Z,48.56
2023-05-09T06:24:31.633Z,34.07
2023-05-09T06:27:42.042Z,34.78
2023-05-09T06:30:50.800Z,37.09
2023-05-09T06:33:57.609Z,34.60
2023-05-09T06:37:03.554Z,26.54
2023-05-09T06:40:12.582Z,28.67
2023-05-09T06:43:18.559Z,30.83
2023-05-09T06:46:28.140Z,32.07
2023-05-09T06:49:36.293Z,34.73
2023-05-09T06:52:43.721Z,40.43
2023-05-09T06:55:49.925Z,39.66
2023-05-09T06:58:56.848Z,36.19
2023-05-09T07:02:06.829Z,31.92
2023-05-09T07:05:14.059Z,33.84
2023-05-09T07:08:20.400Z,28.40
2023-05-09T07:11:27.403Z,30.90
2023-05-09T07:14:37.296Z,28.23
2023-05-09T07:17:47.069Z,47.48
2023-05-09T07:20:53.094Z,43.84
2023-05-09T07:23:59.868Z,44.55
2023-05-09T07:27:06.822Z,25.52
2023-05-09T07:30:14.896Z,29.09
2023-05-09T07:33:23.854Z,31.43
2023-05-09T07:36:30.822Z,31.42
2023-05-09T07:39:41.300Z,29.27
2023-05-09T07:42:54.421Z,25.38
2023-05-09T07:46:00.436Z,20.13
2023-05-09T07:49:09.947Z,24.24
2023-05-09T07:52:17.610Z,21.18
2023-05-09T07:55:26.539Z,25.46
2023-05-09T07:58:32.499Z,20.72
2023-05-09T08:01:39.432Z,24.34
2023-05-09T08:04:49.287Z,18.86
2023-05-09T08:07:56.097Z,24.36
2023-05-09T08:11:02.243Z,19.22
2023-05-09T08:14:09.061Z,21.02
2023-05-09T08:17:15.048Z,16.85
2023-05-09T08:20:25.996Z,22.41
2023-05-09T08:23:32.812Z,21.93
2023-05-09T08:26:39.599Z,23.64
2023-05-09T08:29:46.408Z,25.26
2023-05-09T08:32:59.507Z,23.63
2023-05-09T08:36:09.493Z,21.52
2023-05-09T08:39:16.301Z,24.93
2023-05-09T08:42:26.786Z,26.27
2023-05-09T08:45:37.170Z,26.70
2023-05-09T08:48:46.471Z,26.21
2023-05-09T08:51:56.353Z,21.70
2023-05-09T08:55:04.059Z,22.85
2023-05-09T08:58:12.774Z,21.97
2023-05-09T09:01:22.092Z,20.60
2023-05-09T09:04:29.065Z,20.35
2023-05-09T09:07:39.775Z,20.09
2023-05-09T09:10:50.254Z,19.93
2023-05-09T09:13:59.113Z,19.22
2023-05-09T09:17:09.439Z,19.05
2023-05-09T09:20:27.682Z,21.63
2023-05-09T09:23:40.982Z,21.31
2023-05-09T09:26:52.000Z,23.57
2023-05-09T09:30:14.629Z,23.99
2023-05-09T09:33:24.345Z,19.67
2023-05-09T09:36:32.737Z,21.72
2023-05-09T09:39:41.285Z,21.83
2023-05-09T09:42:50.087Z,23.14
2023-05-09T09:45:58.286Z,20.03
2023-05-09T09:49:05.208Z,23.97
2023-05-09T09:52:11.115Z,25.21
2023-05-09T09:55:27.891Z,24.01
2023-05-09T09:58:36.066Z,23.38
2023-05-09T10:02:06.106Z,25.24
2023-05-09T10:05:15.838Z,23.84
2023-05-09T10:08:22.844Z,29.26
2023-05-09T10:11:31.721Z,26.09
2023-05-09T10:14:41.553Z,35.93
2023-05-09T10:17:47.888Z,29.37
2023-05-09T10:20:56.707Z,30.50
2023-05-09T10:24:06.400Z,30.20
2023-05-09T10:27:18.825Z,29.45
2023-05-09T10:30:34.219Z,29.93
2023-05-09T10:33:49.873Z,30.23
2023-05-09T10:36:57.789Z,26.81
2023-05-09T10:40:09.595Z,30.53
2023-05-09T10:43:22.088Z,27.82
2023-05-09T10:46:31.613Z,31.59
2023-05-09T10:49:38.331Z,26.40
2023-05-09T10:53:14.482Z,31.05
2023-05-09T10:56:29.496Z,25.90
2023-05-09T10:59:44.022Z,30.93
2023-05-09T11:03:10.906Z,33.15
2023-05-09T11:06:51.388Z,29.73
2023-05-09T11:10:12.915Z,29.47
2023-05-09T11:13:23.865Z,28.86
2023-05-09T11:16:32.433Z,28.48
2023-05-09T11:19:57.031Z,31.76
2023-05-09T11:23:09.012Z,26.47
2023-05-09T11:26:18.296Z,32.30
2023-05-09T11:29:29.776Z,25.71
2023-05-09T11:32:49.391Z,30.94
2023-05-09T11:36:25.854Z,30.30
2023-05-09T11:39:33.037Z,32.81
2023-05-09T11:42:39.881Z,40.21
2023-05-09T11:45:50.046Z,38.23
2023-05-09T11:48:58.762Z,37.46
2023-05-09T11:52:05.469Z,36.63
2023-05-09T11:55:14.717Z,37.06
2023-05-09T11:58:21.999Z,37.93
2023-05-09T12:01:29.584Z,32.52
2023-05-09T12:04:39.896Z,31.74
2023-05-09T12:07:46.620Z,27.71
2023-05-09T12:10:53.846Z,32.74
2023-05-09T12:13:59.757Z,29.79
2023-05-09T12:17:06.680Z,30.58
2023-05-09T12:20:16.424Z,26.85
2023-05-09T12:23:23.692Z,26.20
2023-05-09T12:26:30.233Z,17.83
2023-05-09T12:29:38.761Z,24.03
2023-05-09T12:32:47.145Z,21.22
2023-05-09T12:36:11.598Z,17.68
2023-05-09T12:39:22.723Z,19.97
2023-05-09T12:42:31.738Z,22.30
2023-05-09T12:45:38.695Z,13.83
2023-05-09T12:48:50.626Z,16.08
2023-05-09T12:52:05.764Z,20.47
2023-05-09T12:55:17.195Z,22.31
2023-05-09T12:58:23.259Z,29.58
2023-05-09T13:01:37.959Z,29.66
2023-05-09T13:04:48.853Z,23.90
2023-05-09T13:08:00.999Z,25.66
2023-05-09T13:11:18.680Z,22.72
2023-05-09T13:14:30.372Z,25.21
2023-05-09T13:17:36.439Z,25.24
2023-05-09T13:20:43.864Z,26.19
2023-05-09T13:23:53.037Z,26.56
2023-05-09T13:26:59.833Z,31.06
2023-05-09T13:30:07.936Z,27.06
2023-05-09T13:33:25.409Z,32.80
2023-05-09T13:36:32.911Z,26.51
2023-05-09T13:39:42.357Z,31.06
2023-05-09T13:42:49.227Z,28.67
2023-05-09T13:45:56.102Z,29.31
2023-05-09T13:49:05.010Z,30.13
2023-05-09T13:52:12.406Z,24.23
2023-05-09T13:55:23.656Z,23.65
2023-05-09T13:58:30.472Z,28.23
2023-05-09T14:01:36.614Z,28.07
2023-05-09T14:04:44.317Z,33.41
2023-05-09T14:07:52.781Z,25.03
2023-05-09T14:11:04.262Z,23.52
2023-05-09T14:14:10.266Z,25.75
2023-05-09T14:17:17.268Z,26.05
2023-05-09T14:20:24.171Z,23.49
2023-05-09T14:23:32.036Z,24.18
2023-05-09T14:26:42.013Z,29.71
2023-05-09T14:29:49.753Z,37.83
2023-05-09T14:32:55.974Z,32.21
2023-05-09T14:36:05.104Z,29.99
2023-05-09T14:39:11.225Z,30.97
2023-05-09T14:42:21.082Z,27.03
2023-05-09T14:45:27.137Z,27.62
2023-05-09T14:48:34.137Z,27.96
2023-05-09T14:51:40.203Z,30.42
2023-05-09T14:54:46.968Z,27.73
2023-05-09T14:57:55.619Z,19.19
2023-05-09T15:01:03.024Z,18.93
2023-05-09T15:04:09.774Z,22.96
2023-05-09T15:07:16.508Z,28.28
2023-05-09T15:10:22.574Z,22.81
2023-05-09T15:13:32.142Z,27.13
2023-05-09T15:16:40.032Z,26.89
2023-05-09T15:19:47.263Z,30.18
2023-05-09T15:22:56.494Z,24.13
2023-05-09T15:26:03.249Z,27.19
2023-05-09T15:29:13.447Z,28.72
2023-05-09T15:32:20.724Z,29.34
2023-05-09T15:35:27.005Z,25.21
2023-05-09T15:38:33.688Z,29.36
2023-05-09T15:41:42.983Z,28.34
2023-05-09T15:44:53.172Z,29.39
2023-05-09T15:47:59.167Z,31.94
2023-05-09T15:51:06.048Z,31.90
2023-05-09T15:54:11.997Z,32.94
2023-05-09T15:57:20.123Z,34.13
2023-05-09T16:00:38.583Z,24.22
2023-05-09T16:03:45.515Z,33.54
2023-05-09T16:06:52.513Z,35.30
2023-05-09T16:10:00.253Z,35.83
2023-05-09T16:13:06.319Z,30.61
2023-05-09T16:16:16.061Z,34.47
2023-05-09T16:19:30.883Z,29.26
2023-05-09T16:22:37.795Z,30.85
2023-05-09T16:25:45.208Z,31.94
2023-05-09T16:28:52.359Z,33.91
2023-05-09T16:32:01.008Z,27.39
2023-05-09T16:35:22.753Z,28.13
2023-05-09T16:38:29.194Z,21.91
2023-05-09T16:41:36.000Z,27.49
2023-05-09T16:44:42.170Z,25.21
2023-05-09T16:47:51.726Z,28.05
2023-05-09T16:50:57.756Z,31.38
2023-05-09T16:54:09.990Z,31.66
2023-05-09T16:57:19.798Z,36.12
2023-05-09T17:00:39.961Z,31.12
2023-05-09T17:03:48.927Z,31.88
2023-05-09T17:06:55.996Z,39.55
2023-05-09T17:10:02.258Z,32.96
2023-05-09T17:13:09.701Z,33.89
2023-05-09T17:16:16.406Z,31.36
2023-05-09T17:19:28.756Z,32.30
2023-05-09T17:22:41.785Z,32.69
2023-05-09T17:25:52.242Z,31.88
2023-05-09T17:28:58.257Z,37.01
2023-05-09T17:32:07.913Z,35.16
2023-05-09T17:35:19.639Z,34.72
2023-05-09T17:38:26.540Z,31.30
2023-05-09T17:41:38.932Z,25.58
2023-05-09T17:44:47.864Z,24.52
2023-05-09T17:47:53.903Z,23.74
2023-05-09T17:51:09.934Z,27.07
2023-05-09T17:54:22.187Z,34.98
2023-05-09T17:57:29.161Z,39.00
2023-05-09T18:00:41.949Z,42.77
2023-05-09T18:03:51.196Z,36.59
2023-05-09T18:07:00.118Z,33.78
2023-05-09T18:10:15.517Z,36.00
2023-05-09T18:13:21.812Z,38.04
2023-05-09T18:16:28.711Z,39.82
2023-05-09T18:19:35.760Z,45.92
2023-05-09T18:22:45.067Z,49.61
2023-05-09T18:25:51.486Z,46.96
2023-05-09T18:28:58.422Z,41.65
2023-05-09T18:32:04.993Z,37.46
2023-05-09T18:35:12.927Z,48.28
2023-05-09T18:38:21.474Z,37.25
2023-05-09T18:41:34.259Z,36.19
2023-05-09T18:44:40.294Z,34.88
2023-05-09T18:47:47.178Z,42.43
2023-05-09T18:50:54.306Z,35.76
2023-05-09T18:54:03.839Z,38.31
2023-05-09T18:57:10.252Z,37.58
2023-05-09T19:00:19.101Z,47.97
2023-05-09T19:03:25.833Z,47.91
2023-05-09T19:06:34.946Z,38.26
2023-05-09T19:09:45.035Z,32.07
2023-05-09T19:12:52.312Z,38.09
2023-05-09T19:15:59.606Z,35.10
2023-05-09T19:19:06.440Z,33.55
2023-05-09T19:22:12.455Z,32.32
2023-05-09T19:25:22.474Z,35.83
2023-05-09T19:28:28.643Z,34.89
2023-05-09T19:31:35.428Z,37.65
2023-05-09T19:34:41.471Z,35.85
2023-05-09T19:37:50.447Z,37.86
2023-05-09T19:40:59.503Z,39.18
2023-05-09T19:44:07.552Z,35.21
2023-05-09T19:47:14.029Z,28.52
2023-05-09T19:50:21.463Z,26.41
2023-05-09T19:53:36.130Z,26.48
2023-05-09T19:56:45.577Z,30.34
2023-05-09T19:59:52.343Z,29.45
2023-05-09T20:03:02.852Z,30.54
2023-05-09T20:06:09.366Z,31.00
2023-05-09T20:09:21.116Z,34.77
2023-05-09T20:12:30.364Z,32.80
2023-05-09T20:15:37.610Z,34.33
2023-05-09T20:19:01.375Z,25.30
2023-05-09T20:22:09.242Z,33.69
2023-05-09T20:25:15.660Z,27.67
2023-05-09T20:28:25.224Z,31.11
2023-05-09T20:31:31.567Z,29.12
2023-05-09T20:34:38.454Z,58.26
2023-05-09T20:37:44.674Z,67.53
2023-05-09T20:40:51.450Z,52.12
2023-05-09T20:44:04.534Z,41.87
2023-05-09T20:47:11.812Z,31.52
2023-05-09T20:50:18.141Z,32.61
2023-05-09T20:53:26.805Z,31.13
2023-05-09T20:56:34.001Z,30.45
2023-05-09T20:59:44.393Z,34.95
2023-05-09T21:02:50.373Z,34.06
2023-05-09T21:05:57.490Z,35.37
2023-05-09T21:09:03.728Z,31.63
2023-05-09T21:12:11.393Z,30.09
2023-05-09T21:15:20.453Z,35.07
2023-05-09T21:18:27.783Z,33.78
2023-05-09T21:21:34.728Z,29.55
2023-05-09T21:24:41.400Z,30.53
2023-05-09T21:27:47.869Z,31.94
2023-05-09T21:31:00.224Z,36.68
2023-05-09T21:34:10.321Z,34.98
2023-05-09T21:37:17.208Z,32.86
2023-05-09T21:40:25.963Z,29.41
2023-05-09T21:43:32.784Z,32.14
2023-05-09T21:46:46.523Z,32.28
2023-05-09T21:49:53.469Z,31.73
2023-05-09T21:53:00.747Z,33.40
2023-05-09T21:56:08.624Z,32.08
2023-05-09T21:59:14.461Z,30.08
2023-05-09T22:02:24.026Z,32.86
2023-05-09T22:05:30.154Z,31.90
2023-05-09T22:08:36.900Z,29.11
2023-05-09T22:11:42.907Z,27.21
2023-05-09T22:14:56.329Z,28.53
2023-05-09T22:18:05.718Z,30.99
2023-05-09T22:21:12.989Z,31.35
2023-05-09T22:24:18.812Z,27.91
2023-05-09T22:27:25.654Z,32.16
2023-05-09T22:30:38.068Z,29.41
2023-05-09T22:33:47.469Z,28.41
2023-05-09T22:36:56.366Z,29.25
2023-05-09T22:40:03.732Z,31.61
2023-05-09T22:43:10.904Z,30.43
2023-05-09T22:46:17.636Z,31.33
2023-05-09T22:49:26.813Z,25.25
2023-05-09T22:52:33.568Z,29.69
2023-05-09T22:55:39.777Z,25.07
2023-05-09T22:58:46.911Z,27.86
2023-05-09T23:01:53.828Z,29.99
2023-05-09T23:05:03.553Z,37.19
2023-05-09T23:08:09.603Z,36.02
2023-05-09T23:11:16.301Z,35.89
2023-05-09T23:14:22.356Z,36.84
2023-05-09T23:17:32.081Z,31.19
2023-05-09T23:20:40.669Z,30.26
2023-05-09T23:23:47.407Z,36.05
2023-05-09T23:26:53.372Z,35.24
2023-05-09T23:30:00.223Z,35.16
2023-05-09T23:33:06.339Z,29.76
2023-05-09T23:36:15.943Z,29.82
2023-05-09T23:39:21.980Z,30.09
2023-05-09T23:42:29.161Z,29.53
2023-05-09T23:45:40.863Z,31.48
2023-05-09T23:48:47.677Z,284.41
2023-05-09T23:51:57.292Z,856.49
2023-05-09T23:55:04.099Z,1458.70
2023-05-09T23:58:10.115Z,409.06
